Time;durP1;ratioP1;P1;durP2;ratioP2;P2;SDS_P1;SDS_P2;PMS_P1;PMS_P2;Temp;Humidity;BMP_temperature;BMP_pressure;BME280_temperature;BME280_humidity;BME280_pressure;Samples;Min_cycle;Max_cycle;Signal;HPM_P1;HPM_P2
2022/01/20 00:02:10;;;;;;;24.23;3.15;;;6.50;96.20;;;;;;5013293;28;20125;-71
2022/01/20 00:04:49;;;;;;;30.35;3.30;;;6.50;96.40;;;;;;5013511;28;20150;-71
2022/01/20 00:07:32;;;;;;;24.25;2.78;;;6.40;96.40;;;;;;5013021;28;20025;-71
2022/01/20 00:25:45;;;;;;;24.70;3.10;;;6.40;97.10;;;;;;5012768;28;20030;-71
2022/01/20 00:26:19;;;;;;;27.67;3.55;;;6.30;97.30;;;;;;5012001;28;20085;-71
2022/01/20 00:28:49;;;;;;;31.77;3.92;;;6.20;97.80;;;;;;5011976;28;20049;-71
2022/01/20 00:31:32;;;;;;;22.95;3.05;;;6.20;98.00;;;;;;5012884;28;20054;-72
2022/01/20 00:34:29;;;;;;;21.55;2.90;;;6.10;98.20;;;;;;5012878;28;20395;-71
2022/01/20 00:39:39;;;;;;;17.40;3.40;;;6.10;98.80;;;;;;5012665;28;20286;-70
2022/01/20 00:42:05;;;;;;;35.33;4.53;;;6.10;99.00;;;;;;5013117;28;20030;-70
2022/01/20 00:44:30;;;;;;;30.45;3.85;;;6.00;99.20;;;;;;5012420;28;20030;-72
2022/01/20 00:46:56;;;;;;;25.90;3.90;;;6.00;99.50;;;;;;5011912;28;20121;-70
2022/01/20 00:49:22;;;;;;;33.88;4.18;;;6.00;99.60;;;;;;4995252;28;20087;-71
2022/01/20 00:51:47;;;;;;;21.00;2.95;;;5.90;99.70;;;;;;5012453;28;20064;-71
2022/01/20 00:54:13;;;;;;;26.40;4.53;;;6.00;99.80;;;;;;5012561;28;20018;-71
2022/01/20 00:56:38;;;;;;;31.10;3.92;;;6.00;99.90;;;;;;5011946;28;20422;-71
2022/01/20 00:59:04;;;;;;;31.30;3.63;;;6.00;99.90;;;;;;5012137;28;20053;-72
2022/01/20 01:01:29;;;;;;;33.35;4.03;;;5.90;99.90;;;;;;5011963;28;20030;-71
2022/01/20 01:03:55;;;;;;;25.75;4.30;;;6.00;99.90;;;;;;5011841;28;20372;-71
2022/01/20 01:06:37;;;;;;;29.20;4.40;;;6.00;99.90;;;;;;5012144;28;20033;-71
2022/01/20 01:09:05;;;;;;;31.83;5.10;;;5.90;99.90;;;;;;5012194;28;20049;-71
2022/01/20 01:11:31;;;;;;;;;;;5.80;99.90;;;;;;5012441;28;20030;-71
2022/01/20 01:13:58;;;;;;;40.67;4.00;;;5.70;99.90;;;;;;5011842;28;20270;-72
2022/01/20 01:16:34;;;;;;;35.47;3.50;;;5.80;99.90;;;;;;5011398;28;20034;-70
2022/01/20 01:24:43;;;;;;;19.45;3.50;;;5.80;99.90;;;;;;4999579;28;20100;-71
2022/01/20 01:27:11;;;;;;;31.67;4.30;;;5.80;99.90;;;;;;4974292;28;20034;-72
2022/01/20 01:32:15;;;;;;;34.50;4.70;;;5.80;99.90;;;;;;4991934;28;20030;-71
2022/01/20 01:34:46;;;;;;;40.65;4.82;;;5.70;99.90;;;;;;4991965;28;20416;-71
2022/01/20 01:39:56;;;;;;;34.80;3.88;;;5.70;99.90;;;;;;4991796;28;20368;-71
2022/01/20 01:42:28;;;;;;;26.50;4.13;;;5.70;99.90;;;;;;4992370;28;20023;-71
2022/01/20 01:44:55;;;;;;;23.83;3.90;;;5.70;99.90;;;;;;4991579;28;20041;-72
2022/01/20 01:47:20;;;;;;;26.00;3.00;;;5.80;99.90;;;;;;4990846;28;20315;-71
2022/01/20 01:49:46;;;;;;;27.65;3.63;;;5.80;99.90;;;;;;4991686;28;20062;-71
2022/01/20 01:52:11;;;;;;;30.10;3.92;;;5.70;99.90;;;;;;4991512;28;20081;-71
2022/01/20 01:54:37;;;;;;;25.58;3.50;;;5.60;99.90;;;;;;4991514;28;20037;-71
2022/01/20 01:57:06;;;;;;;31.65;3.50;;;5.60;99.90;;;;;;4991288;28;20029;-71
2022/01/20 01:59:32;;;;;;;30.67;3.10;;;5.50;99.90;;;;;;4974199;28;20034;-72
2022/01/20 02:01:58;;;;;;;29.58;3.55;;;5.60;99.90;;;;;;4974269;28;20026;-71
2022/01/20 02:04:23;;;;;;;27.98;3.85;;;5.60;99.90;;;;;;4991412;28;20062;-71
2022/01/20 02:09:44;;;;;;;25.88;3.58;;;5.70;99.90;;;;;;4992079;28;20113;-71
2022/01/20 02:18:10;;;;;;;31.67;3.22;;;5.80;99.90;;;;;;4990773;28;20391;-71
2022/01/20 02:20:35;;;;;;;29.85;3.90;;;5.70;99.90;;;;;;4991374;28;20122;-71
2022/01/20 02:23:01;;;;;;;29.13;3.40;;;5.80;99.90;;;;;;4991017;28;20114;-71
2022/01/20 02:25:30;;;;;;;33.85;3.67;;;5.80;99.90;;;;;;5001090;28;20046;-71
2022/01/20 02:27:59;;;;;;;28.33;4.05;;;5.70;99.90;;;;;;5010833;28;20030;-70
2022/01/20 02:30:26;;;;;;;25.25;3.33;;;5.80;99.90;;;;;;5011186;28;20030;-71
2022/01/20 02:32:59;;;;;;;29.05;3.72;;;5.80;99.90;;;;;;5010881;28;20034;-71
2022/01/20 02:35:26;;;;;;;25.17;3.00;;;5.80;99.90;;;;;;5009979;28;20045;-71
2022/01/20 02:37:59;;;;;;;36.78;3.22;;;5.90;99.90;;;;;;5010546;28;20056;-71
2022/01/20 02:45:50;;;;;;;18.35;2.85;;;5.80;99.90;;;;;;5010414;28;20088;-71
2022/01/20 02:48:15;;;;;;;23.33;2.53;;;5.80;99.90;;;;;;4994781;28;20391;-72
2022/01/20 02:50:41;;;;;;;30.55;3.78;;;5.80;99.90;;;;;;5014610;28;20041;-71
2022/01/20 02:53:07;;;;;;;33.75;2.97;;;5.90;99.90;;;;;;5014566;28;20041;-71
2022/01/20 02:55:33;;;;;;;34.50;2.90;;;5.90;99.90;;;;;;4996506;28;20042;-72
2022/01/20 02:57:58;;;;;;;27.70;2.88;;;5.90;99.90;;;;;;5014331;28;20034;-71
2022/01/20 03:00:24;;;;;;;31.92;3.65;;;5.90;99.90;;;;;;4997089;28;20026;-71
2022/01/20 03:02:50;;;;;;;22.38;2.78;;;5.80;99.90;;;;;;5014864;28;20061;-71
2022/01/20 03:05:16;;;;;;;18.92;2.33;;;5.80;99.90;;;;;;5013916;28;20045;-71
2022/01/20 03:07:42;;;;;;;17.85;2.90;;;5.90;99.90;;;;;;5013844;28;20037;-72
2022/01/20 03:10:08;;;;;;;17.42;3.15;;;5.80;99.90;;;;;;5013882;28;20034;-71
2022/01/20 03:12:34;;;;;;;20.92;3.17;;;5.80;99.90;;;;;;5014119;28;20022;-72
2022/01/20 03:15:00;;;;;;;18.33;2.55;;;5.80;99.90;;;;;;5014530;28;20105;-72
2022/01/20 03:17:25;;;;;;;22.52;2.35;;;5.80;99.90;;;;;;5014079;28;20485;-72
2022/01/20 03:19:51;;;;;;;25.08;2.42;;;5.70;99.90;;;;;;5013612;28;20038;-72
2022/01/20 03:22:17;;;;;;;15.73;1.67;;;5.80;99.90;;;;;;5013545;28;20042;-70
2022/01/20 03:24:42;;;;;;;12.38;2.38;;;5.80;99.90;;;;;;4996286;28;20069;-71
2022/01/20 03:27:08;;;;;;;22.15;2.70;;;5.70;99.90;;;;;;5014279;28;20436;-72
2022/01/20 03:29:34;;;;;;;11.65;1.48;;;5.70;99.90;;;;;;5013988;28;20030;-71
2022/01/20 03:32:00;;;;;;;12.88;2.17;;;5.70;99.90;;;;;;5012981;28;20041;-71
2022/01/20 03:34:25;;;;;;;13.45;1.73;;;5.70;99.90;;;;;;5013779;28;20348;-71
2022/01/20 03:36:52;;;;;;;17.17;2.17;;;5.60;99.90;;;;;;4996206;28;20046;-71
2022/01/20 03:39:20;;;;;;;14.20;1.75;;;5.70;99.90;;;;;;4996513;28;20022;-72
2022/01/20 03:41:46;;;;;;;10.88;1.52;;;5.70;99.90;;;;;;5013345;28;20494;-71
2022/01/20 03:44:12;;;;;;;8.65;1.33;;;5.80;99.90;;;;;;4996118;28;20041;-71
2022/01/20 03:46:37;;;;;;;15.25;1.42;;;5.70;99.90;;;;;;4996053;28;20057;-71
2022/01/20 03:49:10;;;;;;;7.30;1.40;;;5.60;99.90;;;;;;4996218;28;20045;-72
2022/01/20 03:51:36;;;;;;;14.85;1.95;;;5.70;99.90;;;;;;4995092;28;20092;-71
2022/01/20 03:54:04;;;;;;;14.00;1.42;;;5.70;99.90;;;;;;5013788;28;20447;-71
2022/01/20 03:56:30;;;;;;;8.05;1.15;;;5.60;99.90;;;;;;4996041;28;20169;-71
2022/01/20 03:58:56;;;;;;;5.40;0.90;;;5.60;99.90;;;;;;5012853;28;20109;-71
2022/01/20 04:01:22;;;;;;;8.57;1.23;;;5.70;99.90;;;;;;5013327;28;20054;-72
2022/01/20 04:03:48;;;;;;;8.45;1.35;;;5.70;99.90;;;;;;4995837;28;20076;-72
2022/01/20 04:06:14;;;;;;;8.20;0.90;;;5.70;99.90;;;;;;4996283;28;20029;-71
2022/01/20 04:08:42;;;;;;;8.45;0.88;;;5.60;99.90;;;;;;5012910;28;20041;-71
2022/01/20 04:11:21;;;;;;;8.65;1.17;;;5.50;99.90;;;;;;5013229;28;20112;-71
2022/01/20 04:13:46;;;;;;;6.95;0.98;;;5.60;99.90;;;;;;4994867;28;20432;-72
2022/01/20 04:16:19;;;;;;;5.40;0.73;;;5.50;99.90;;;;;;5012882;28;20038;-72
2022/01/20 04:18:56;;;;;;;8.00;0.80;;;5.50;99.90;;;;;;4995185;28;20033;-71
2022/01/20 04:21:29;;;;;;;9.00;1.42;;;5.50;99.90;;;;;;5013300;28;20097;-70
2022/01/20 04:23:56;;;;;;;5.05;0.80;;;5.60;99.90;;;;;;5012834;28;20042;-71
2022/01/20 04:26:22;;;;;;;5.32;0.95;;;5.50;99.90;;;;;;5011735;28;20042;-72
2022/01/20 04:28:53;;;;;;;6.30;1.00;;;5.50;99.90;;;;;;5012931;28;20030;-71
2022/01/20 04:31:20;;;;;;;3.20;0.60;;;5.50;99.90;;;;;;4995163;28;20427;-71
2022/01/20 04:33:46;;;;;;;3.75;0.77;;;5.40;99.90;;;;;;5012522;28;20018;-71
2022/01/20 04:36:11;;;;;;;3.17;0.68;;;5.30;99.90;;;;;;5012578;28;20048;-70
2022/01/20 04:38:37;;;;;;;7.28;1.00;;;5.40;99.90;;;;;;5012666;28;20520;-71
2022/01/20 04:41:03;;;;;;;2.42;0.73;;;5.30;99.90;;;;;;5012196;28;20022;-70
2022/01/20 04:43:28;;;;;;;6.82;0.90;;;5.40;99.90;;;;;;5012474;28;20034;-72
2022/01/20 04:46:04;;;;;;;12.52;2.30;;;5.30;99.90;;;;;;5011504;28;20061;-72
2022/01/20 04:59:27;;;;;;;7.45;1.23;;;5.50;99.90;;;;;;5011857;28;20507;-71
2022/01/20 05:01:53;;;;;;;12.02;1.40;;;5.50;99.90;;;;;;5012314;28;20029;-70
2022/01/20 05:04:19;;;;;;;11.95;1.65;;;5.40;99.80;;;;;;5012221;28;20473;-71
2022/01/20 05:06:46;;;;;;;11.00;1.45;;;5.50;99.70;;;;;;5011994;28;20044;-72
2022/01/20 05:09:18;;;;;;;15.52;2.33;;;5.50;99.60;;;;;;4994818;28;20167;-71
2022/01/20 05:11:51;;;;;;;18.75;1.38;;;5.40;99.50;;;;;;5011549;28;20467;-72
2022/01/20 05:14:17;;;;;;;8.52;1.17;;;5.40;99.50;;;;;;5011593;28;20041;-71
2022/01/20 05:16:43;;;;;;;10.63;1.95;;;5.40;99.20;;;;;;5011647;28;20042;-71
2022/01/20 05:19:08;;;;;;;9.32;1.65;;;5.40;99.30;;;;;;4994060;28;20030;-71
2022/01/20 05:21:34;;;;;;;11.25;1.73;;;5.20;99.00;;;;;;5011686;28;20478;-71
2022/01/20 05:23:59;;;;;;;14.85;2.00;;;5.40;99.10;;;;;;5011741;28;20026;-71
2022/01/20 05:26:25;;;;;;;10.27;1.73;;;5.40;98.70;;;;;;5011032;28;20058;-71
2022/01/20 05:28:50;;;;;;;19.27;2.25;;;5.50;98.40;;;;;;5011458;28;20038;-72
2022/01/20 05:31:16;;;;;;;19.02;2.08;;;5.60;98.50;;;;;;5011515;28;20029;-71
2022/01/20 05:33:41;;;;;;;10.43;1.58;;;5.50;98.20;;;;;;5011449;28;20022;-72
2022/01/20 05:36:07;;;;;;;21.33;2.42;;;5.60;98.10;;;;;;5011554;28;20141;-71
2022/01/20 05:38:33;;;;;;;11.52;2.00;;;5.60;98.20;;;;;;5011221;28;20425;-71
2022/01/20 05:40:58;;;;;;;13.10;1.65;;;5.60;98.10;;;;;;5011627;28;20365;-70
2022/01/20 05:43:24;;;;;;;18.50;2.15;;;5.60;98.00;;;;;;5011388;28;20030;-72
2022/01/20 05:45:50;;;;;;;12.35;2.20;;;5.60;98.10;;;;;;5010963;28;20038;-71
2022/01/20 05:48:17;;;;;;;11.45;1.83;;;5.60;98.00;;;;;;5011567;28;20119;-71
2022/01/20 05:50:43;;;;;;;24.73;2.53;;;5.50;97.90;;;;;;4994077;28;20034;-73
2022/01/20 05:53:10;;;;;;;12.60;1.73;;;5.60;97.80;;;;;;5011595;28;20049;-72
2022/01/20 05:55:36;;;;;;;16.77;2.42;;;5.60;97.70;;;;;;5011333;28;20112;-71
2022/01/20 05:58:05;;;;;;;20.48;2.10;;;5.60;97.30;;;;;;5010846;28;20033;-71
2022/01/20 06:00:31;;;;;;;18.83;1.83;;;5.50;96.90;;;;;;5011759;28;20434;-71
2022/01/20 06:05:41;;;;;;;12.15;2.03;;;5.40;96.90;;;;;;5010916;28;20084;-72
2022/01/20 06:08:08;;;;;;;14.98;2.30;;;5.30;97.00;;;;;;5011157;28;20049;-71
2022/01/20 06:10:34;;;;;;;18.30;2.47;;;5.30;97.00;;;;;;4993171;28;20117;-70
2022/01/20 06:13:00;;;;;;;21.33;2.50;;;5.30;97.40;;;;;;5010241;28;20113;-71
2022/01/20 06:15:26;;;;;;;20.85;2.63;;;5.20;97.70;;;;;;5007194;28;20436;-72
2022/01/20 06:17:52;;;;;;;14.82;2.35;;;5.00;98.30;;;;;;5010650;28;20194;-72
2022/01/20 06:20:17;;;;;;;12.13;1.98;;;4.90;98.80;;;;;;5011048;28;20503;-72
2022/01/20 06:22:43;;;;;;;20.65;2.38;;;4.90;99.10;;;;;;5008314;28;20057;-72
2022/01/20 06:25:08;;;;;;;14.38;2.15;;;4.90;99.00;;;;;;5010210;28;20061;-71
2022/01/20 06:27:36;;;;;;;10.90;1.63;;;4.90;98.90;;;;;;5010686;28;20076;-71
2022/01/20 06:30:03;;;;;;;13.48;2.30;;;4.80;98.60;;;;;;5010309;28;20108;-73
2022/01/20 06:32:28;;;;;;;12.63;2.30;;;4.80;98.70;;;;;;5000170;28;20033;-72
2022/01/20 06:34:54;;;;;;;10.60;1.75;;;4.70;98.50;;;;;;5030743;28;20087;-72
2022/01/20 06:37:20;;;;;;;12.43;2.30;;;4.50;98.40;;;;;;5030766;28;20037;-71
2022/01/20 06:39:45;;;;;;;14.02;1.92;;;4.50;98.60;;;;;;5030301;28;20095;-71
2022/01/20 06:42:11;;;;;;;18.48;2.58;;;4.50;98.60;;;;;;5027028;28;20040;-71
2022/01/20 06:44:36;;;;;;;20.90;2.00;;;4.50;98.40;;;;;;5010689;28;20041;-71
2022/01/20 06:47:02;;;;;;;14.82;1.88;;;4.60;98.20;;;;;;5010525;28;20030;-71
2022/01/20 06:49:28;;;;;;;17.80;2.22;;;4.50;98.10;;;;;;5010408;28;20479;-71
2022/01/20 06:51:53;;;;;;;15.95;2.30;;;4.60;98.00;;;;;;5010688;28;20125;-71
2022/01/20 06:54:19;;;;;;;17.65;2.70;;;4.70;97.60;;;;;;5011180;28;20105;-71
2022/01/20 06:56:45;;;;;;;14.82;2.03;;;4.80;97.50;;;;;;5010173;28;20030;-71
2022/01/20 06:59:12;;;;;;;19.58;2.92;;;4.80;97.20;;;;;;5010537;28;20042;-71
2022/01/20 07:01:39;;;;;;;6.63;1.52;;;4.80;96.80;;;;;;5011443;28;20057;-72
2022/01/20 07:04:05;;;;;;;11.88;2.20;;;4.80;96.50;;;;;;5003257;28;20076;-72
2022/01/20 07:06:31;;;;;;;14.00;1.92;;;4.60;96.60;;;;;;4974224;28;20375;-71
2022/01/20 07:08:57;;;;;;;15.20;2.15;;;4.70;96.70;;;;;;4999906;28;20041;-73
2022/01/20 07:11:23;;;;;;;11.32;1.70;;;4.80;96.60;;;;;;5015984;28;20117;-72
2022/01/20 07:13:48;;;;;;;13.43;2.10;;;4.80;96.70;;;;;;4993407;28;20459;-70
2022/01/20 07:16:14;;;;;;;14.45;2.13;;;4.60;96.80;;;;;;5009250;28;20390;-75
2022/01/20 07:18:39;;;;;;;21.90;2.35;;;4.70;97.00;;;;;;5009567;28;20135;-74
2022/01/20 07:21:05;;;;;;;25.35;3.22;;;4.70;96.80;;;;;;5009653;28;20436;-73
2022/01/20 07:23:31;;;;;;;14.23;2.92;;;4.80;96.90;;;;;;5009273;28;20460;-73
2022/01/20 07:25:56;;;;;;;21.48;2.42;;;4.80;96.70;;;;;;5008757;28;20133;-73
2022/01/20 07:28:22;;;;;;;15.60;2.83;;;4.90;97.10;;;;;;4992702;28;20129;-75
2022/01/20 07:30:47;;;;;;;16.13;2.58;;;4.90;96.60;;;;;;4992166;28;20026;-74
2022/01/20 07:33:13;;;;;;;13.60;2.78;;;4.70;96.50;;;;;;5010540;28;20478;-74
2022/01/20 07:35:39;;;;;;;13.48;1.88;;;4.70;96.60;;;;;;5013835;28;20113;-75
2022/01/20 07:38:05;;;;;;;14.13;2.17;;;4.70;96.30;;;;;;5011667;28;20449;-73
2022/01/20 07:40:32;;;;;;;16.92;1.58;;;4.70;96.40;;;;;;4994383;28;20646;-77
2022/01/20 07:42:59;;;;;;;13.32;2.00;;;4.60;96.40;;;;;;5012945;28;20048;-78
2022/01/20 07:45:25;;;;;;;13.93;2.33;;;4.60;96.10;;;;;;5015897;28;20084;-77
2022/01/20 07:47:50;;;;;;;21.55;2.55;;;4.60;96.10;;;;;;5014851;28;20477;-78
2022/01/20 07:50:16;;;;;;;19.23;2.28;;;4.60;96.30;;;;;;5014674;28;20069;-80
2022/01/20 07:52:42;;;;;;;17.58;2.63;;;4.50;96.30;;;;;;5013781;28;20125;-81
2022/01/20 07:55:08;;;;;;;13.13;2.22;;;4.60;96.30;;;;;;5013185;28;20570;-74
2022/01/20 07:57:34;;;;;;;10.75;2.33;;;4.70;96.30;;;;;;4996297;28;20038;-80
2022/01/20 07:59:59;;;;;;;21.80;3.15;;;4.70;96.30;;;;;;5014604;28;20025;-80
2022/01/20 08:02:25;;;;;;;12.90;2.03;;;4.70;96.30;;;;;;4996847;28;20045;-79
2022/01/20 08:04:51;;;;;;;11.15;2.75;;;4.60;96.10;;;;;;5014169;28;20033;-78
2022/01/20 08:07:18;;;;;;;20.30;2.47;;;4.60;96.20;;;;;;5013729;28;20041;-78
2022/01/20 08:09:44;;;;;;;17.02;2.35;;;4.60;96.30;;;;;;5012948;28;20063;-78
2022/01/20 08:12:11;;;;;;;12.45;1.85;;;4.30;96.40;;;;;;4997670;28;20082;-77
2022/01/20 08:14:39;;;;;;;14.40;2.38;;;4.50;96.30;;;;;;4996132;28;20034;-79
2022/01/20 08:17:06;;;;;;;18.08;2.05;;;4.60;96.60;;;;;;5013699;28;20127;-80
2022/01/20 08:19:32;;;;;;;15.70;2.53;;;4.60;96.30;;;;;;4997012;28;20123;-78
2022/01/20 08:21:57;;;;;;;17.20;2.65;;;4.60;96.40;;;;;;5013533;28;20085;-79
2022/01/20 08:24:23;;;;;;;11.00;2.28;;;4.60;96.50;;;;;;4996436;28;20030;-78
2022/01/20 08:26:48;;;;;;;14.35;2.70;;;4.50;96.20;;;;;;4997508;28;20026;-77
2022/01/20 08:29:14;;;;;;;15.95;2.05;;;4.60;96.30;;;;;;5014183;28;20029;-78
2022/01/20 08:31:39;;;;;;;17.35;2.78;;;4.80;96.30;;;;;;4998266;28;20492;-78
2022/01/20 08:34:05;;;;;;;14.02;1.92;;;4.80;96.10;;;;;;4993887;28;20045;-81
2022/01/20 08:36:32;;;;;;;18.10;3.97;;;4.90;96.10;;;;;;4994487;28;20022;-77
2022/01/20 08:38:57;;;;;;;13.32;1.75;;;4.90;95.80;;;;;;4994455;28;20027;-77
2022/01/20 08:41:23;;;;;;;16.20;2.70;;;4.90;95.90;;;;;;4994481;28;20480;-78
2022/01/20 08:43:49;;;;;;;13.35;2.35;;;4.90;95.70;;;;;;4993345;28;20041;-77
2022/01/20 08:46:19;;;;;;;11.60;1.88;;;5.00;95.90;;;;;;4992106;28;20241;-77
2022/01/20 08:48:45;;;;;;;12.38;1.88;;;4.90;95.70;;;;;;4992988;28;20027;-79
2022/01/20 08:51:11;;;;;;;12.75;2.33;;;4.90;95.70;;;;;;4993448;28;20447;-79
2022/01/20 08:53:36;;;;;;;6.78;1.52;;;4.90;95.50;;;;;;4993061;28;20743;-81
2022/01/20 08:56:03;;;;;;;9.90;1.70;;;5.00;95.80;;;;;;4992755;28;20096;-73
2022/01/20 08:58:29;;;;;;;16.42;2.67;;;5.10;95.70;;;;;;4992864;28;20118;-71
2022/01/20 09:00:55;;;;;;;22.27;2.38;;;5.30;95.60;;;;;;4992607;28;20113;-75
2022/01/20 09:03:23;;;;;;;18.48;2.17;;;5.40;95.50;;;;;;4993173;28;20415;-74
2022/01/20 09:05:49;;;;;;;14.52;2.17;;;5.20;95.00;;;;;;4992881;28;20372;-72
2022/01/20 09:08:15;;;;;;;18.17;2.42;;;5.00;95.10;;;;;;4992333;28;20486;-74
2022/01/20 09:10:45;;;;;;;12.38;1.80;;;5.10;95.60;;;;;;4988822;28;20045;-80
2022/01/20 09:15:55;;;;;;;10.18;2.60;;;5.40;95.10;;;;;;4996944;28;20428;-77
2022/01/20 09:18:22;;;;;;;15.65;2.45;;;5.40;94.90;;;;;;5012891;28;20033;-78
2022/01/20 09:20:48;;;;;;;17.13;1.92;;;5.50;94.60;;;;;;5013077;28;20054;-77
2022/01/20 09:23:14;;;;;;;12.05;1.98;;;5.40;94.80;;;;;;5013258;28;20034;-76
2022/01/20 09:25:41;;;;;;;16.33;1.92;;;5.40;94.90;;;;;;5011700;28;20049;-77
2022/01/20 09:28:07;;;;;;;21.90;3.37;;;5.50;94.70;;;;;;5011707;28;20058;-76
2022/01/20 09:30:35;;;;;;;14.65;2.08;;;5.40;94.70;;;;;;5011789;28;20405;-77
2022/01/20 09:33:12;;;;;;;19.52;2.20;;;5.30;94.80;;;;;;5012131;28;20397;-77
2022/01/20 09:35:40;;;;;;;16.15;2.03;;;4.90;94.90;;;;;;4993956;28;20030;-76
2022/01/20 09:38:06;;;;;;;13.15;2.17;;;5.00;95.40;;;;;;4994017;28;20648;-77
2022/01/20 09:40:33;;;;;;;14.07;2.15;;;4.90;95.30;;;;;;5011475;28;20030;-74
2022/01/20 09:42:59;;;;;;;22.30;1.80;;;4.80;95.60;;;;;;4994554;28;20022;-76
2022/01/20 09:45:25;;;;;;;14.73;2.45;;;4.80;96.10;;;;;;4995511;28;20367;-82
2022/01/20 09:47:51;;;;;;;14.00;2.10;;;5.00;96.40;;;;;;5013517;28;20057;-78
2022/01/20 09:50:19;;;;;;;13.98;2.00;;;5.00;96.20;;;;;;5013343;28;20451;-79
2022/01/20 09:52:45;;;;;;;;;;;5.10;96.10;;;;;;5013278;28;20030;-78
2022/01/20 09:55:11;;;;;;;21.17;3.15;;;5.10;95.90;;;;;;5012089;28;19914;-77
2022/01/20 09:57:37;;;;;;;14.13;1.83;;;5.10;95.90;;;;;;5012969;28;20502;-77
2022/01/20 10:00:07;;;;;;;11.73;2.10;;;5.20;96.00;;;;;;5014005;28;20120;-78
2022/01/20 10:02:33;;;;;;;16.77;3.05;;;5.30;95.70;;;;;;5012270;28;20030;-78
2022/01/20 10:04:59;;;;;;;17.50;2.13;;;5.20;95.40;;;;;;5010651;28;20041;-78
2022/01/20 10:07:32;;;;;;;16.92;2.95;;;5.10;95.10;;;;;;5011525;28;20332;-78
2022/01/20 10:09:57;;;;;;;23.05;2.95;;;5.20;95.20;;;;;;5011531;28;20475;-78
2022/01/20 10:12:29;;;;;;;22.23;2.63;;;5.20;95.20;;;;;;4993800;28;20025;-80
2022/01/20 10:14:56;;;;;;;17.73;1.90;;;5.20;95.10;;;;;;5010332;28;20033;-79
2022/01/20 10:17:31;;;;;;;16.55;2.05;;;5.40;95.40;;;;;;5009242;28;20056;-78
2022/01/20 10:20:05;;;;;;;14.77;2.30;;;5.30;95.30;;;;;;4993014;28;20092;-79
2022/01/20 10:22:34;;;;;;;15.55;2.72;;;4.80;95.60;;;;;;5010467;28;20045;-84
2022/01/20 10:25:02;;;;;;;13.25;2.15;;;4.90;96.30;;;;;;4987189;28;20053;-84
2022/01/20 10:27:30;;;;;;;12.13;2.35;;;4.90;96.30;;;;;;4991934;28;20030;-84
2022/01/20 10:29:57;;;;;;;;;;;4.80;96.40;;;;;;4991376;28;20034;-76
2022/01/20 10:32:24;;;;;;;15.32;2.60;;;4.70;96.40;;;;;;4991792;28;20375;-76
2022/01/20 10:35:01;;;;;;;8.70;3.17;;;4.80;96.20;;;;;;4992329;28;20045;-81
2022/01/20 10:37:26;;;;;;;10.73;1.70;;;4.90;96.10;;;;;;4992550;28;20545;-79
2022/01/20 10:39:52;;;;;;;20.30;2.55;;;4.80;96.20;;;;;;4974484;28;20130;-73
2022/01/20 10:42:22;;;;;;;24.08;3.03;;;4.90;96.10;;;;;;4991773;28;20097;-73
2022/01/20 10:44:48;;;;;;;18.08;3.05;;;5.10;96.00;;;;;;4991198;28;20407;-78
2022/01/20 10:47:16;;;;;;;22.52;4.03;;;5.20;95.80;;;;;;4992072;28;20030;-79
2022/01/20 10:49:43;;;;;;;17.30;2.70;;;5.10;95.90;;;;;;4991018;28;20039;-76
2022/01/20 10:52:10;;;;;;;15.13;2.10;;;5.10;96.00;;;;;;4973901;28;20125;-77
2022/01/20 10:54:45;;;;;;;9.32;1.98;;;5.30;96.00;;;;;;4974859;28;20045;-76
2022/01/20 10:57:12;;;;;;;11.95;2.50;;;5.30;95.60;;;;;;4991748;28;20109;-76
2022/01/20 10:59:56;;;;;;;16.27;2.15;;;5.40;95.40;;;;;;4974385;28;20066;-76
2022/01/20 11:02:29;;;;;;;21.15;3.35;;;5.20;95.50;;;;;;4988516;28;20797;-76
2022/01/20 11:04:56;;;;;;;19.00;2.55;;;5.20;95.80;;;;;;4973757;28;20451;-77
2022/01/20 11:07:23;;;;;;;23.52;2.10;;;4.90;95.70;;;;;;4992571;28;20466;-76
2022/01/20 11:09:55;;;;;;;18.83;3.28;;;4.90;96.20;;;;;;4975520;28;20041;-76
2022/01/20 11:12:22;;;;;;;14.60;2.13;;;4.90;96.30;;;;;;4994867;28;20027;-71
2022/01/20 11:14:51;;;;;;;14.32;2.15;;;4.90;96.30;;;;;;4994584;28;20125;-72
2022/01/20 11:17:25;;;;;;;13.07;2.40;;;4.70;96.40;;;;;;4977256;28;20044;-73
2022/01/20 11:19:51;;;;;;;14.85;2.72;;;4.70;96.80;;;;;;4976553;28;20042;-72
2022/01/20 11:22:19;;;;;;;15.27;3.28;;;4.60;97.10;;;;;;4994095;28;20060;-77
2022/01/20 11:24:58;;;;;;;17.50;2.75;;;4.70;98.70;;;;;;4998731;28;20131;-72
2022/01/20 11:27:35;;;;;;;4.28;1.63;;;4.50;98.00;;;;;;5013911;28;20050;-73
2022/01/20 11:30:11;;;;;;;15.15;1.70;;;4.50;98.80;;;;;;5014064;28;20463;-76
2022/01/20 11:32:38;;;;;;;11.20;1.75;;;4.50;98.70;;;;;;5014049;28;20038;-73
2022/01/20 11:35:07;;;;;;;8.95;1.83;;;4.40;99.20;;;;;;5013780;28;20555;-73
2022/01/20 11:37:39;;;;;;;17.02;3.75;;;4.40;99.10;;;;;;5013011;28;20108;-76
2022/01/20 11:40:16;;;;;;;12.80;1.50;;;4.60;98.70;;;;;;4996149;28;20125;-76
2022/01/20 11:42:42;;;;;;;11.95;1.88;;;4.80;98.50;;;;;;4996522;28;20360;-77
2022/01/20 11:45:39;;;;;;;10.60;2.08;;;5.10;98.40;;;;;;4996237;28;20038;-73
2022/01/20 11:48:14;;;;;;;4.63;1.25;;;5.70;97.70;;;;;;4989113;28;20048;-74
2022/01/20 11:50:43;;;;;;;8.73;1.90;;;5.90;97.00;;;;;;5012515;28;20046;-74
2022/01/20 11:53:19;;;;;;;6.43;1.75;;;5.80;96.60;;;;;;5012181;28;20030;-75
2022/01/20 11:55:52;;;;;;;9.07;2.50;;;5.80;96.30;;;;;;5013194;28;20130;-73
2022/01/20 11:58:21;;;;;;;11.30;2.25;;;5.80;96.80;;;;;;4996254;28;20115;-77
2022/01/20 12:01:07;;;;;;;7.50;1.95;;;5.90;96.50;;;;;;4993054;28;20416;-75
2022/01/20 12:03:35;;;;;;;11.38;2.28;;;6.40;96.80;;;;;;5006844;28;20073;-80
2022/01/20 12:06:12;;;;;;;18.27;3.25;;;6.60;96.30;;;;;;5014371;28;20096;-76
2022/01/20 12:08:51;;;;;;;17.47;2.67;;;6.70;97.20;;;;;;4996503;28;20034;-77
2022/01/20 12:11:16;;;;;;;8.70;2.17;;;7.10;97.20;;;;;;4996613;28;20049;-81
2022/01/20 12:13:50;;;;;;;15.98;2.55;;;7.30;96.40;;;;;;5012964;28;20050;-79
2022/01/20 12:16:21;;;;;;;20.88;2.33;;;7.20;95.20;;;;;;4994284;28;20058;-81
2022/01/20 12:18:55;;;;;;;14.57;2.50;;;7.20;94.80;;;;;;4993708;28;20511;-79
2022/01/20 12:21:21;;;;;;;16.88;3.33;;;7.00;94.30;;;;;;4992962;28;20026;-78
2022/01/20 12:23:50;;;;;;;12.95;2.55;;;6.80;94.20;;;;;;5011382;28;20044;-81
2022/01/20 12:26:16;;;;;;;13.18;2.08;;;6.60;94.20;;;;;;4997019;28;20134;-77
2022/01/20 12:28:42;;;;;;;13.38;3.03;;;6.30;94.40;;;;;;4993100;28;20129;-78
2022/01/20 12:31:13;;;;;;;15.30;2.15;;;6.50;94.10;;;;;;4975904;28;20085;-78
2022/01/20 12:33:43;;;;;;;14.98;2.28;;;6.40;93.40;;;;;;4992648;28;20026;-77
2022/01/20 12:36:16;;;;;;;13.02;2.40;;;6.20;93.80;;;;;;4993686;28;20030;-78
2022/01/20 12:38:45;;;;;;;8.15;1.92;;;5.80;93.80;;;;;;4993155;28;20103;-77
2022/01/20 12:41:29;;;;;;;9.65;1.83;;;6.00;94.40;;;;;;4993271;28;20038;-76
2022/01/20 12:44:04;;;;;;;13.75;2.30;;;6.10;94.10;;;;;;4993226;28;20042;-77
2022/01/20 12:46:32;;;;;;;19.25;2.20;;;6.10;94.30;;;;;;4992652;28;20038;-76
2022/01/20 12:49:05;;;;;;;;;;;6.30;94.40;;;;;;4993199;28;20050;-75
2022/01/20 12:51:35;;;;;;;17.40;2.53;;;6.20;94.10;;;;;;4993257;28;20299;-72
2022/01/20 12:54:05;;;;;;;14.43;2.63;;;6.30;94.40;;;;;;4993170;28;20050;-79
2022/01/20 12:56:36;;;;;;;13.02;1.70;;;6.20;94.40;;;;;;4992217;28;20038;-77
2022/01/20 12:59:03;;;;;;;17.92;2.25;;;6.10;93.90;;;;;;4993636;28;20046;-80
2022/01/20 13:01:45;;;;;;;11.23;2.17;;;6.30;94.30;;;;;;4976161;28;20678;-78
2022/01/20 13:04:13;;;;;;;13.05;2.60;;;6.10;93.50;;;;;;4993945;28;20030;-79
2022/01/20 13:06:45;;;;;;;9.73;1.98;;;6.30;93.80;;;;;;4991716;28;20026;-77
2022/01/20 13:09:12;;;;;;;10.13;1.73;;;6.40;93.50;;;;;;4994675;28;20353;-76
2022/01/20 13:11:58;;;;;;;10.00;2.22;;;6.60;93.40;;;;;;4991775;28;20042;-76
2022/01/20 13:14:35;;;;;;;10.57;2.20;;;6.70;92.80;;;;;;4976008;28;20049;-76
2022/01/20 13:17:01;;;;;;;23.35;4.43;;;6.90;92.40;;;;;;4993800;28;20129;-76
2022/01/20 13:19:39;;;;;;;12.50;2.63;;;7.10;92.30;;;;;;4975888;28;20045;-77
2022/01/20 13:22:17;;;;;;;11.68;1.70;;;6.80;91.50;;;;;;4993599;28;20181;-77
2022/01/20 13:24:43;;;;;;;14.05;1.75;;;6.80;91.40;;;;;;4997843;28;20526;-77
2022/01/20 13:27:12;;;;;;;12.02;2.05;;;6.80;91.70;;;;;;4996731;28;20168;-76
2022/01/20 13:29:46;;;;;;;15.32;2.40;;;6.80;91.50;;;;;;5012050;28;20533;-76
2022/01/20 13:32:13;;;;;;;14.63;2.15;;;6.50;91.50;;;;;;4994410;28;20042;-75
2022/01/20 13:34:39;;;;;;;10.73;1.30;;;6.50;91.80;;;;;;4993874;28;20034;-79
2022/01/20 13:37:13;;;;;;;13.55;1.67;;;6.50;91.90;;;;;;5010448;28;20049;-77
2022/01/20 13:39:43;;;;;;;12.50;1.50;;;6.20;92.40;;;;;;4993522;28;20030;-79
2022/01/20 13:42:37;;;;;;;8.68;2.00;;;5.90;93.10;;;;;;4994015;28;20396;-78
2022/01/20 13:45:13;;;;;;;9.80;1.50;;;5.70;93.70;;;;;;5011114;28;20077;-78
2022/01/20 13:48:09;;;;;;;9.10;1.60;;;5.40;95.00;;;;;;5010122;28;20054;-79
2022/01/20 13:50:40;;;;;;;11.93;1.35;;;5.70;95.40;;;;;;4987182;28;20033;-78
2022/01/20 13:53:16;;;;;;;8.50;1.50;;;5.80;95.40;;;;;;5013012;28;20065;-78
2022/01/20 13:55:44;;;;;;;8.52;1.65;;;5.90;95.50;;;;;;4994862;28;20038;-79